Latest Weather Observations for Yanco

IDN60801

Issued at 4:05 pm EDT Saturday 1 November 2014 (issued every 30 minutes, with the page automatically refreshed every 10 minutes)

About weather observations | Map of weather stations | Latest weather observations for NSW | Other Formats
Station Details ID: 074037 Name: YANCO AGRICULTURAL INSTITUTE Lat: -34.62 Lon: 146.43 Height: 164.0 m
Data from the previous 72 hours. | See also: Recent months at Yanco
Date/Time
EDT
Temp
°C
App
Temp
°C
Dew
Point
Rel
Hum
%
Delta-T
°C
Wind Press
QNH
hPa
Press
MSL
hPa
Rain
since 9 am
mm
Dir
 
Spd
km/h
Gust
km/h
Spd
kts
Gust
kts
01/04:00pm 21.1 12.6 2.9 30 8.7 W 37 50 20 27 - - 4.0
01/03:31pm 21.7 14.0 5.2 34 8.2 WSW 35 56 19 30 - - 4.0
01/03:30pm 22.0 14.4 5.8 35 8.2 WSW 35 52 19 28 - - 4.0
01/03:09pm 21.7 14.4 5.6 35 8.1 W 33 52 18 28 - - 4.0
01/03:00pm 21.6 14.0 5.9 36 7.9 W 35 50 19 27 - - 4.0
01/02:36pm 20.6 14.1 8.3 45 6.5 W 32 57 17 31 - - 4.0
01/02:30pm 21.7 16.8 9.9 47 6.4 W 26 43 14 23 - - 4.0
01/02:00pm 17.7 14.1 11.7 68 3.3 W 22 33 12 18 - - 4.0
01/01:30pm 19.3 15.9 12.6 65 3.8 WSW 22 35 12 19 - - 4.0
01/01:00pm 17.7 14.0 12.6 72 2.9 WSW 24 33 13 18 - - 4.0
01/12:30pm 16.0 12.0 13.1 83 1.6 WSW 26 48 14 26 - - 4.0
01/12:26pm 15.8 11.3 12.7 82 1.7 WSW 28 48 15 26 - - 4.0
01/12:00pm 15.4 12.2 13.2 87 1.2 WSW 22 33 12 18 - - 4.0
01/11:30am 15.0 12.6 14.4 96 0.3 W 20 30 11 16 - - 4.0
01/11:00am 15.0 12.3 14.7 98 0.2 W 22 35 12 19 - - 3.2
01/10:30am 16.3 11.3 13.4 83 1.6 W 32 46 17 25 - - 0.0
01/10:00am 20.1 15.6 11.3 57 4.9 WSW 26 35 14 19 - - 0.0
01/09:30am 20.5 17.3 11.2 55 5.2 WSW 19 28 10 15 - - 0.0
01/09:00am 22.5 18.8 9.3 43 7.1 W 19 24 10 13 - - 0.0
01/08:30am 23.0 19.2 9.0 41 7.6 WSW 19 30 10 16 - - 0.0
01/08:00am 23.6 19.5 8.5 38 8.1 WSW 20 32 11 17 - - 0.0
01/07:30am 23.8 19.5 7.0 34 8.8 WSW 19 24 10 13 - - 0.0
01/07:00am 24.1 18.8 6.8 33 9.0 WSW 24 39 13 21 - - 0.0
01/06:30am 24.2 20.5 11.5 45 7.2 NW 22 37 12 20 - - 0.0
01/06:00am 24.6 20.5 11.5 44 7.5 NNW 24 39 13 21 - - 0.0
01/05:30am 23.8 18.1 11.8 47 6.8 W 33 46 18 25 - - 0.0
01/05:00am 23.8 18.7 11.8 47 6.8 N 30 41 16 22 - - 0.0
01/04:30am 24.0 19.2 11.7 46 7.0 N 28 39 15 21 - - 0.0
01/04:00am 24.4 19.7 12.0 46 7.1 N 28 41 15 22 - - 0.0
01/03:30am 24.9 19.5 12.2 45 7.3 N 32 44 17 24 - - 0.0
01/03:00am 25.5 20.4 12.0 43 7.8 N 30 46 16 25 - - 0.0
01/02:35am 25.8 20.7 11.9 42 8.0 N 30 48 16 26 - - 0.0
01/02:30am 26.0 20.6 12.1 42 8.0 N 32 44 17 24 - - 0.0
01/02:00am 25.6 20.1 9.0 35 9.1 N 28 41 15 22 - - 0.0
01/01:30am 25.6 19.2 5.2 27 10.4 N 28 39 15 21 - - 0.0
01/01:13am 26.5 18.8 2.4 21 11.8 N 32 50 17 27 - - 0.0
01/01:07am 27.3 19.2 0.9 18 12.7 NNE 33 41 18 22 - - 0.0
01/01:00am 26.6 22.3 1.1 19 12.2 N 13 19 7 10 - - 0.0
01/12:30am 25.9 22.5 1.9 21 11.6 N 9 15 5 8 - - 0.0
01/12:00am 26.2 22.4 1.5 20 11.9 N 11 15 6 8 - - 0.0
 
Date/Time
EDT
Temp
°C
App
Temp
°C
Dew
Point
Rel
Hum
%
Delta-T
°C
Wind Press
QNH
hPa
Press
MSL
hPa
Rain
since 9 am
mm
Dir
 
Spd
km/h
Gust
km/h
Spd
kts
Gust
kts
31/11:30pm 26.4 22.6 1.7 20 11.9 N 11 17 6 9 - - 0.0
31/11:00pm 26.9 22.5 0.6 18 12.5 N 13 19 7 10 - - 0.0
31/10:30pm 26.6 21.8 0.4 18 12.4 N 15 20 8 11 - - 0.0
31/10:00pm 26.9 22.5 0.6 18 12.5 N 13 17 7 9 - - 0.0
31/09:30pm 26.6 22.2 0.4 18 12.4 N 13 17 7 9 - - 0.0
31/09:00pm 27.5 23.1 0.3 17 12.9 N 13 19 7 10 - - 0.0
31/08:30pm 28.1 23.3 -0.1 16 13.4 N 15 17 8 9 - - 0.0
31/08:00pm 28.0 24.7 2.2 19 12.7 N 9 13 5 7 - - 0.0
31/07:30pm 30.1 26.3 1.5 16 14.1 N 11 13 6 7 - - 0.0
31/07:00pm 32.3 29.0 0.4 13 15.7 N 7 11 4 6 - - 0.0
31/06:30pm 31.8 28.1 0.0 13 15.5 NNW 9 13 5 7 - - 0.0
31/06:00pm 32.5 28.4 -0.5 12 16.0 NNW 11 19 6 10 - - 0.0
31/05:30pm 33.2 27.3 -2.5 10 16.8 NW 19 30 10 16 - - 0.0
31/05:00pm 34.3 27.0 -3.1 9 17.6 NNW 26 35 14 19 - - 0.0
31/04:30pm 33.6 27.5 -2.2 10 17.0 NNW 20 32 11 17 - - 0.0
31/04:00pm 33.9 28.2 -0.7 11 16.9 NW 19 28 10 15 - - 0.0
31/03:30pm 34.3 28.3 -1.7 10 17.3 NW 20 32 11 17 - - 0.0
31/03:00pm 34.6 28.2 -1.4 10 17.5 NW 22 39 12 21 - - 0.0
31/02:30pm 34.9 28.2 -1.2 10 17.6 NW 24 50 13 27 - - 0.0
31/02:00pm 35.4 29.1 -0.8 10 17.8 NW 22 33 12 18 - - 0.0
31/01:30pm 35.0 28.3 -1.1 10 17.6 NW 24 33 13 18 - - 0.0
31/01:00pm 35.1 28.4 -1.1 10 17.7 NNW 24 39 13 21 - - 0.0
31/12:30pm 33.9 29.3 1.6 13 16.4 NW 15 26 8 14 - - 0.0
31/12:00pm 32.6 28.9 2.6 15 15.3 NW 11 22 6 12 - - 0.0
31/11:30am 31.6 27.4 1.8 15 14.9 N 13 22 7 12 - - 0.0
31/11:00am 31.5 27.5 2.7 16 14.6 NNW 13 22 7 12 - - 0.0
31/10:30am 30.7 26.7 2.9 17 14.1 NNW 13 20 7 11 - - 0.0
31/10:00am 29.4 25.0 2.6 18 13.4 N 15 22 8 12 - - 0.0
31/09:30am 28.9 25.3 3.0 19 13.0 NNE 11 17 6 9 - - 0.0
31/09:00am 26.6 22.9 4.4 24 11.3 E 13 17 7 9 - - 0.0
31/08:30am 23.4 19.2 3.9 28 9.6 E 15 19 8 10 - - 0.0
31/08:00am 20.9 15.9 3.6 32 8.3 E 19 24 10 13 - - 0.0
31/07:30am 18.9 14.1 2.7 34 7.5 E 17 20 9 11 - - 0.0
31/07:00am 18.1 13.6 2.4 35 7.2 ESE 15 17 8 9 - - 0.0
31/06:30am 17.1 12.9 1.5 35 7.0 SE 13 15 7 8 - - 0.0
31/06:00am 15.0 12.0 1.9 41 5.8 S 7 15 4 8 - - 0.0
31/05:30am 15.8 14.2 2.2 40 6.1 CALM 0 4 0 2 - - 0.0
31/05:00am 16.4 13.5 1.7 37 6.6 ESE 6 11 3 6 - - 0.0
31/04:30am 18.4 14.6 1.9 33 7.5 E 11 11 6 6 - - 0.0
31/04:00am 18.0 14.2 1.9 34 7.3 E 11 13 6 7 - - 0.0
31/03:30am 15.7 13.4 2.5 41 6.0 ESE 4 9 2 5 - - 0.0
31/03:00am 19.2 15.7 1.2 30 8.2 ESE 9 11 5 6 - - 0.0
31/02:30am 20.2 16.7 1.1 28 8.7 E 9 11 5 6 - - 0.0
31/02:00am 19.8 16.7 1.3 29 8.4 ESE 7 11 4 6 - - 0.0
31/01:30am 20.3 17.3 1.7 29 8.6 E 7 9 4 5 - - 0.0
31/01:00am 19.9 16.4 1.4 29 8.5 E 9 9 5 5 - - 0.0
31/12:30am 20.9 17.9 2.2 29 8.8 ESE 7 11 4 6 - - 0.0
31/12:00am 22.1 18.8 2.2 27 9.4 SE 9 11 5 6 - - 0.0
 
Date/Time
EDT
Temp
°C
App
Temp
°C
Dew
Point
Rel
Hum
%
Delta-T
°C
Wind Press
QNH
hPa
Press
MSL
hPa
Rain
since 9 am
mm
Dir
 
Spd
km/h
Gust
km/h
Spd
kts
Gust
kts
30/11:30pm 22.3 19.0 2.4 27 9.5 SE 9 11 5 6 - - 0.0
30/11:00pm 22.5 19.2 2.6 27 9.5 SE 9 11 5 6 - - 0.0
30/10:30pm 23.0 19.7 2.5 26 9.8 SSE 9 13 5 7 - - 0.0
30/10:00pm 23.6 20.3 2.4 25 10.2 SSE 9 11 5 6 - - 0.0
30/09:30pm 24.8 21.5 2.3 23 10.9 S 9 9 5 5 - - 0.0
30/09:00pm 25.0 22.1 2.4 23 11.0 SSW 7 9 4 5 - - 0.0
30/08:30pm 25.6 22.8 2.3 22 11.3 SSW 6 7 3 4 - - 0.0
30/08:00pm 26.4 23.8 3.0 22 11.6 WSW 6 9 3 5 - - 0.0
30/07:30pm 27.8 24.9 2.8 20 12.4 W 7 11 4 6 - - 0.0
30/07:00pm 29.6 26.4 2.8 18 13.5 W 9 19 5 10 - - 0.0
30/06:30pm 31.0 27.3 2.3 16 14.5 W 11 19 6 10 - - 0.0
30/06:00pm 31.1 25.9 2.3 16 14.5 W 19 26 10 14 - - 0.0
30/05:30pm 31.4 26.1 1.7 15 14.8 WSW 19 28 10 15 - - 0.0
30/05:05pm 31.6 24.2 1.8 15 14.9 WSW 30 37 16 20 - - 0.0
30/05:00pm 31.6 27.4 1.8 15 14.9 W 13 19 7 10 - - 0.0
30/04:30pm 31.9 26.6 2.1 15 15.0 W 19 28 10 15 - - 0.0
30/04:00pm 31.8 26.5 2.0 15 15.0 W 19 26 10 14 - - 0.0
30/03:30pm 32.0 26.7 2.1 15 15.1 W 19 41 10 22 - - 0.0
30/03:00pm 31.8 27.1 2.9 16 14.8 W 17 33 9 18 - - 0.0
30/02:30pm 31.2 26.0 3.3 17 14.3 W 20 33 11 18 - - 0.0
30/02:00pm 30.9 24.8 3.0 17 14.2 W 24 41 13 22 - - 0.0
30/01:30pm 29.9 25.7 3.8 19 13.4 W 15 26 8 14 - - 0.0
30/01:00pm 29.4 24.9 4.1 20 13.0 W 17 33 9 18 - - 0.0
30/12:30pm 28.6 24.6 4.8 22 12.3 W 15 28 8 15 - - 0.0
30/12:00pm 28.2 24.1 4.5 22 12.2 W 15 24 8 13 - - 0.0
30/11:30am 27.4 24.5 4.5 23 11.7 NW 9 17 5 9 - - 0.0
30/11:00am 27.1 23.7 4.2 23 11.6 NW 11 20 6 11 - - 0.0
30/10:30am 26.2 22.9 4.6 25 11.0 NNW 11 17 6 9 - - 0.0
30/10:00am 25.7 22.4 4.8 26 10.6 NW 11 17 6 9 - - 0.0
30/09:30am 24.4 21.3 5.7 30 9.6 NNW 11 13 6 7 - - 0.0
30/09:00am 22.2 20.0 6.0 35 8.2 NNW 7 9 4 5 - - 0.0
30/08:30am 20.0 19.0 7.4 44 6.5 WNW 2 4 1 2 - - 0.0
30/08:00am 17.1 16.3 6.3 49 5.3 CALM 0 0 0 0 - - 0.0
30/07:30am 15.3 14.3 5.8 53 4.6 CALM 0 0 0 0 - - 0.0
30/07:00am 15.1 14.0 5.0 51 4.8 CALM 0 2 0 1 - - 0.0
30/06:30am 14.8 12.6 5.1 52 4.6 NNE 6 7 3 4 - - 0.0
30/06:00am 13.9 12.7 4.8 54 4.3 CALM 0 4 0 2 - - 0.0
30/05:30am 13.7 12.2 4.8 55 4.2 NNE 2 4 1 2 - - 0.0
30/05:00am 12.9 11.8 5.1 59 3.6 CALM 0 0 0 0 - - 0.0
30/04:30am 13.6 11.7 4.7 55 4.1 NE 4 6 2 3 - - 0.0
30/04:00am 15.9 12.9 4.3 46 5.5 E 9 13 5 7 - - 0.0
30/03:30am 14.7 12.2 5.0 52 4.6 ENE 7 9 4 5 - - 0.0
30/03:00am 15.7 12.8 4.4 47 5.3 E 9 9 5 5 - - 0.0
30/02:30am 15.0 12.4 4.1 48 5.1 E 7 9 4 5 - - 0.0
30/02:00am 16.1 13.7 4.2 45 5.6 ESE 6 7 3 4 - - 0.0
30/01:30am 16.9 15.7 4.6 44 5.9 CALM 0 0 0 0 - - 0.0
30/01:00am 18.9 17.7 4.7 39 6.9 CALM 0 0 0 0 - - 0.0
30/12:30am 17.8 16.6 4.7 42 6.3 CALM 0 0 0 0 - - 0.0
30/12:00am 17.6 15.9 4.2 41 6.4 N 2 4 1 2 - - 0.0
 
Date/Time
EDT
Temp
°C
App
Temp
°C
Dew
Point
Rel
Hum
%
Delta-T
°C
Wind Press
QNH
hPa
Press
MSL
hPa
Rain
since 9 am
mm
Dir
 
Spd
km/h
Gust
km/h
Spd
kts
Gust
kts
29/11:30pm 18.1 16.0 5.7 44 6.1 N 6 6 3 3 - - 0.0
29/11:00pm 19.2 17.2 4.2 37 7.2 N 4 6 2 3 - - 0.0
29/10:30pm 19.1 17.0 3.7 36 7.3 N 4 4 2 2 - - 0.0
29/10:00pm 20.0 18.6 3.7 34 7.8 CALM 0 2 0 1 - - 0.0
29/09:30pm 20.3 18.6 3.9 34 7.9 SW 2 4 1 2 - - 0.0
29/09:00pm 20.9 18.4 4.0 33 8.2 SW 6 6 3 3 - - 0.0
29/08:30pm 20.9 18.4 4.5 34 8.0 SW 7 7 4 4 - - 0.0
29/08:00pm 21.6 19.6 4.2 32 8.5 W 4 6 2 3 - - 0.0
29/07:30pm 23.4 20.9 3.9 28 9.6 W 6 9 3 5 - - 0.0
29/07:00pm 25.0 21.9 3.6 25 10.6 W 9 15 5 8 - - 0.0
29/06:30pm 25.6 21.8 4.1 25 10.8 W 13 19 7 10 - - 0.0
29/06:00pm 26.1 22.3 4.0 24 11.1 WSW 13 20 7 11 - - 0.0
29/05:30pm 26.5 23.2 4.3 24 11.3 W 11 19 6 10 - - 0.0
29/05:00pm 26.8 23.1 4.6 24 11.3 SW 13 19 7 10 - - 0.0
29/04:30pm 26.6 23.4 5.0 25 11.1 WNW 11 19 6 10 - - 0.0

Other Formats:

Comma delimited format used in spreadsheet applications
http://www.bom.gov.au/fwo/IDN60801/IDN60801.95705.axf

JavaScript Object Notation format (JSON) in row-major order
http://www.bom.gov.au/fwo/IDN60801/IDN60801.95705.json